Time;durP1;ratioP1;P1;durP2;ratioP2;P2;SDS_P1;SDS_P2;PMS_P1;PMS_P2;Temp;Humidity;BMP_temperature;BMP_pressure;BME280_temperature;BME280_humidity;BME280_pressure;Samples;Min_cycle;Max_cycle;Signal;HPM_P1;HPM_P2
2021/08/04 00:02:04;;;;;;;2.33;2.13;;;14.60;99.90;;;;;;5053527;28;20209;-72
2021/08/04 00:04:30;;;;;;;2.80;2.53;;;14.60;99.90;;;;;;5054247;28;20552;-71
2021/08/04 00:06:55;;;;;;;3.23;2.93;;;14.60;99.90;;;;;;5054265;28;20220;-73
2021/08/04 00:09:21;;;;;;;3.00;2.47;;;14.60;99.90;;;;;;5054842;28;20678;-73
2021/08/04 00:11:47;;;;;;;3.43;2.70;;;14.60;99.90;;;;;;5053363;28;20239;-73
2021/08/04 00:14:13;;;;;;;3.77;2.10;;;14.60;99.90;;;;;;5054581;28;20186;-72
2021/08/04 00:16:38;;;;;;;3.97;3.03;;;14.60;99.90;;;;;;5054177;28;20197;-72
2021/08/04 00:19:05;;;;;;;3.53;2.83;;;14.60;99.90;;;;;;5053889;28;20182;-72
2021/08/04 00:21:31;;;;;;;2.90;2.40;;;14.60;99.90;;;;;;5053742;28;20201;-72
2021/08/04 00:23:57;;;;;;;2.57;2.37;;;14.60;99.90;;;;;;5053045;28;20194;-72
2021/08/04 00:26:22;;;;;;;2.70;2.40;;;14.60;99.90;;;;;;5052363;28;20197;-72
2021/08/04 00:28:48;;;;;;;2.70;2.50;;;14.50;99.90;;;;;;5053752;28;20178;-72
2021/08/04 00:31:14;;;;;;;2.80;2.40;;;14.60;99.90;;;;;;5053565;28;20188;-72
2021/08/04 00:33:39;;;;;;;5.30;2.83;;;14.60;99.90;;;;;;5053708;28;20251;-72
2021/08/04 00:36:05;;;;;;;2.87;2.37;;;14.50;99.90;;;;;;5053516;28;20217;-71
2021/08/04 00:38:31;;;;;;;2.70;2.50;;;14.50;99.90;;;;;;5052227;28;20177;-73
2021/08/04 00:40:57;;;;;;;3.50;2.40;;;14.50;99.90;;;;;;5053599;28;20213;-72
2021/08/04 00:43:23;;;;;;;2.90;2.70;;;14.50;99.90;;;;;;5053501;28;20182;-72
2021/08/04 00:45:48;;;;;;;3.07;2.33;;;14.50;99.90;;;;;;5053649;28;20259;-72
2021/08/04 00:48:16;;;;;;;3.67;2.40;;;14.50;99.90;;;;;;5053415;28;20260;-72
2021/08/04 00:50:42;;;;;;;5.03;2.60;;;14.40;99.90;;;;;;5053614;28;20239;-71
2021/08/04 00:53:25;;;;;;;2.93;2.60;;;14.50;99.90;;;;;;5053022;28;20182;-71
2021/08/04 00:55:53;;;;;;;3.20;2.40;;;14.40;99.90;;;;;;5053537;28;20193;-74
2021/08/04 00:58:29;;;;;;;4.17;2.33;;;14.40;99.90;;;;;;5053283;28;20182;-71
2021/08/04 01:01:08;;;;;;;4.97;2.63;;;14.50;99.90;;;;;;5053294;28;20643;-72
2021/08/04 01:03:40;;;;;;;5.10;2.63;;;14.40;99.90;;;;;;5051778;28;20181;-71
2021/08/04 01:06:12;;;;;;;3.20;2.53;;;14.50;99.90;;;;;;5053402;28;20205;-72
2021/08/04 01:08:42;;;;;;;4.03;2.90;;;14.50;99.90;;;;;;5053064;28;20186;-72
2021/08/04 01:11:10;;;;;;;4.27;2.70;;;14.50;99.90;;;;;;5052062;28;20526;-72
2021/08/04 01:13:41;;;;;;;3.20;2.90;;;14.50;99.90;;;;;;5052454;28;20410;-72
2021/08/04 01:16:10;;;;;;;4.00;3.30;;;14.40;99.90;;;;;;5052870;28;20197;-73
2021/08/04 01:18:41;;;;;;;4.20;2.70;;;14.40;99.90;;;;;;5052954;28;20657;-73
2021/08/04 01:21:10;;;;;;;2.50;2.27;;;14.30;99.90;;;;;;5052851;28;20201;-70
2021/08/04 01:23:53;;;;;;;4.40;2.83;;;14.20;99.90;;;;;;5051625;28;20185;-72
2021/08/04 01:26:27;;;;;;;3.17;2.87;;;14.30;99.90;;;;;;5051590;28;20221;-72
2021/08/04 01:28:56;;;;;;;3.37;2.80;;;14.30;99.90;;;;;;5052874;28;20209;-73
2021/08/04 01:31:27;;;;;;;17.70;3.30;;;14.40;99.90;;;;;;5052666;28;20174;-72
2021/08/04 01:33:55;;;;;;;3.10;2.80;;;14.50;99.90;;;;;;5051857;28;20236;-71
2021/08/04 01:36:21;;;;;;;3.20;2.70;;;14.30;99.90;;;;;;5051182;28;20225;-71
2021/08/04 01:38:47;;;;;;;4.23;2.97;;;14.20;99.90;;;;;;5051483;28;20181;-73
2021/08/04 01:41:15;;;;;;;3.40;3.10;;;14.20;99.90;;;;;;5052661;28;20233;-71
2021/08/04 01:43:42;;;;;;;2.80;2.60;;;14.30;99.90;;;;;;5052642;28;20170;-72
2021/08/04 01:46:10;;;;;;;2.50;2.30;;;14.30;99.90;;;;;;5053644;28;20280;-73
2021/08/04 01:48:41;;;;;;;5.37;2.63;;;14.40;99.90;;;;;;5053626;28;20208;-72
2021/08/04 01:51:08;;;;;;;2.50;2.30;;;14.40;99.90;;;;;;5053596;28;20194;-71
2021/08/04 01:53:35;;;;;;;2.10;1.90;;;14.40;99.90;;;;;;5052595;28;20269;-72
2021/08/04 01:56:01;;;;;;;2.63;2.43;;;14.30;99.90;;;;;;5051347;28;20579;-73
2021/08/04 01:58:26;;;;;;;3.13;2.50;;;14.30;99.90;;;;;;5052119;28;20201;-71
2021/08/04 02:00:52;;;;;;;2.40;2.20;;;14.30;99.90;;;;;;5051338;28;20188;-71
2021/08/04 02:03:18;;;;;;;5.03;2.20;;;14.30;99.90;;;;;;5052524;28;20181;-72
2021/08/04 02:05:45;;;;;;;4.43;2.60;;;14.30;99.90;;;;;;5052462;28;20207;-72
2021/08/04 02:08:32;;;;;;;2.73;2.50;;;14.20;99.90;;;;;;5052407;28;20683;-72
2021/08/04 02:11:26;;;;;;;3.47;2.47;;;14.20;99.90;;;;;;5051140;28;20173;-72
2021/08/04 02:14:34;;;;;;;2.90;2.33;;;14.20;99.90;;;;;;5049351;28;20173;-72
2021/08/04 02:17:12;;;;;;;5.20;2.67;;;14.30;99.90;;;;;;4990906;28;20694;-71
2021/08/04 02:20:09;;;;;;;4.17;2.80;;;14.30;99.90;;;;;;5040876;28;20197;-71
2021/08/04 02:22:42;;;;;;;3.97;2.80;;;14.20;99.90;;;;;;5049415;28;20276;-71
2021/08/04 02:25:14;;;;;;;4.27;2.60;;;14.30;99.90;;;;;;5053525;28;20270;-71
2021/08/04 02:27:42;;;;;;;4.17;2.87;;;14.30;99.90;;;;;;5055737;28;20182;-71
2021/08/04 02:30:10;;;;;;;2.53;2.33;;;14.30;99.90;;;;;;5054648;28;20203;-72
2021/08/04 02:32:37;;;;;;;2.27;2.07;;;14.20;99.90;;;;;;5055986;28;20186;-72
2021/08/04 02:35:04;;;;;;;3.13;2.83;;;14.20;99.90;;;;;;5056183;28;20193;-72
2021/08/04 02:37:31;;;;;;;3.57;2.80;;;14.30;99.90;;;;;;5051831;28;20276;-72
2021/08/04 02:39:57;;;;;;;3.50;3.20;;;14.30;99.90;;;;;;5037562;28;20195;-74
2021/08/04 02:42:23;;;;;;;2.87;2.57;;;14.30;99.90;;;;;;5054503;28;20207;-73
2021/08/04 02:44:49;;;;;;;5.03;2.97;;;14.30;99.90;;;;;;5054478;28;20181;-70
2021/08/04 02:47:15;;;;;;;5.27;2.87;;;14.40;99.90;;;;;;5054118;28;20189;-73
2021/08/04 02:49:41;;;;;;;4.00;2.77;;;14.30;99.90;;;;;;5053280;28;20186;-71
2021/08/04 02:52:08;;;;;;;3.10;2.80;;;14.30;99.90;;;;;;5054529;28;20261;-72
2021/08/04 02:54:34;;;;;;;4.63;2.57;;;14.40;99.90;;;;;;5053988;28;20174;-73
2021/08/04 02:57:00;;;;;;;2.80;2.50;;;14.30;99.90;;;;;;5051202;28;20220;-72
2021/08/04 02:59:26;;;;;;;3.10;2.80;;;14.30;99.90;;;;;;5046257;28;20630;-74
2021/08/04 03:01:51;;;;;;;3.17;2.87;;;14.30;99.90;;;;;;5052751;28;20213;-73
2021/08/04 03:04:17;;;;;;;3.40;3.10;;;14.20;99.90;;;;;;5052780;28;20665;-72
2021/08/04 03:06:43;;;;;;;3.40;2.67;;;14.30;99.90;;;;;;5052508;28;20208;-73
2021/08/04 03:09:08;;;;;;;3.77;3.13;;;14.30;99.90;;;;;;5051361;28;20232;-73
2021/08/04 03:11:34;;;;;;;3.77;2.90;;;14.30;99.90;;;;;;5052590;28;20208;-71
2021/08/04 03:14:00;;;;;;;3.30;2.90;;;14.20;99.90;;;;;;5052481;28;20190;-72
2021/08/04 03:16:25;;;;;;;2.93;2.53;;;14.10;99.90;;;;;;5052208;28;20209;-71
2021/08/04 03:18:51;;;;;;;2.67;2.47;;;14.10;99.90;;;;;;5052362;28;20300;-70
2021/08/04 03:21:17;;;;;;;3.97;3.30;;;14.10;99.90;;;;;;5052191;28;20206;-73
2021/08/04 03:23:42;;;;;;;4.63;3.30;;;14.10;99.90;;;;;;5050935;28;20600;-73
2021/08/04 03:26:08;;;;;;;3.97;3.07;;;14.20;99.90;;;;;;5052192;28;20274;-73
2021/08/04 03:28:34;;;;;;;3.57;3.27;;;14.10;99.90;;;;;;5052171;28;20617;-70
2021/08/04 03:30:59;;;;;;;4.00;3.00;;;14.20;99.90;;;;;;5050889;28;20170;-72
2021/08/04 03:33:25;;;;;;;3.43;3.13;;;14.20;99.90;;;;;;5052948;28;20217;-70
2021/08/04 03:35:51;;;;;;;4.20;3.00;;;14.20;99.90;;;;;;5054711;28;20209;-72
2021/08/04 03:38:16;;;;;;;4.13;2.80;;;14.30;99.90;;;;;;5052588;28;20177;-72
2021/08/04 03:40:42;;;;;;;3.30;3.00;;;14.30;99.90;;;;;;5054723;28;20201;-73
2021/08/04 03:43:07;;;;;;;4.70;2.87;;;14.30;99.90;;;;;;5053950;28;20221;-71
2021/08/04 03:45:33;;;;;;;3.63;2.70;;;14.20;99.90;;;;;;5054343;28;20249;-72
2021/08/04 03:47:59;;;;;;;4.47;3.27;;;14.20;99.90;;;;;;5053783;28;20666;-71
2021/08/04 03:50:25;;;;;;;3.93;2.87;;;14.30;99.90;;;;;;5054427;28;20166;-71
2021/08/04 03:52:50;;;;;;;5.93;3.20;;;14.30;99.90;;;;;;5054815;28;20169;-71
2021/08/04 03:55:16;;;;;;;5.73;3.40;;;14.30;99.90;;;;;;5054284;28;20182;-71
2021/08/04 03:57:42;;;;;;;4.37;3.10;;;14.20;99.90;;;;;;5054920;28;20189;-71
2021/08/04 04:00:09;;;;;;;4.03;3.30;;;14.00;99.90;;;;;;5054191;28;20241;-72
2021/08/04 04:02:35;;;;;;;3.43;3.13;;;14.00;99.90;;;;;;5050856;28;20197;-72
2021/08/04 04:05:01;;;;;;;3.63;3.33;;;14.10;99.90;;;;;;5052183;28;20180;-72
2021/08/04 04:07:27;;;;;;;4.23;3.40;;;14.20;99.90;;;;;;5051734;28;20229;-71
2021/08/04 04:09:52;;;;;;;4.87;3.40;;;14.20;99.90;;;;;;5051985;28;20200;-72
2021/08/04 04:12:18;;;;;;;5.63;3.33;;;14.20;99.90;;;;;;5050861;28;20181;-73
2021/08/04 04:14:43;;;;;;;3.47;3.17;;;14.20;99.90;;;;;;5053586;28;20181;-71
2021/08/04 04:17:09;;;;;;;6.37;3.30;;;14.10;99.90;;;;;;5053103;28;20209;-71
2021/08/04 04:19:35;;;;;;;4.70;3.47;;;14.10;99.90;;;;;;5053711;28;20181;-72
2021/08/04 04:22:00;;;;;;;4.27;3.20;;;14.10;99.90;;;;;;5051101;28;20247;-71
2021/08/04 04:24:26;;;;;;;5.17;3.40;;;14.10;99.90;;;;;;5051813;28;20663;-72
2021/08/04 04:26:52;;;;;;;4.20;3.60;;;14.20;99.90;;;;;;5052339;28;20194;-72
2021/08/04 04:29:17;;;;;;;4.33;3.47;;;14.20;99.90;;;;;;5050820;28;20185;-73
2021/08/04 04:31:43;;;;;;;3.70;3.40;;;14.10;99.90;;;;;;5053519;28;20181;-73
2021/08/04 04:34:08;;;;;;;3.93;3.63;;;14.10;99.90;;;;;;5052222;28;20315;-72
2021/08/04 04:36:34;;;;;;;4.60;3.47;;;14.20;99.90;;;;;;5081073;23;20221;-73
2021/08/04 04:39:00;;;;;;;4.27;3.63;;;14.20;99.90;;;;;;5073409;28;20256;-74
2021/08/04 04:41:25;;;;;;;3.40;3.10;;;14.20;99.90;;;;;;5073291;28;20280;-73
2021/08/04 04:43:51;;;;;;;3.70;3.40;;;14.20;99.90;;;;;;5073589;28;20248;-73
2021/08/04 04:46:17;;;;;;;3.70;3.40;;;14.20;99.90;;;;;;5073245;28;20188;-73
2021/08/04 04:48:42;;;;;;;5.20;3.57;;;14.20;99.90;;;;;;5072510;28;20173;-73
2021/08/04 04:51:09;;;;;;;4.97;3.83;;;14.20;99.90;;;;;;5073212;28;20181;-73
2021/08/04 04:53:34;;;;;;;3.93;3.60;;;14.30;99.90;;;;;;5064524;28;20246;-73
2021/08/04 04:56:00;;;;;;;4.10;3.70;;;14.30;99.90;;;;;;5059907;28;20651;-73
2021/08/04 04:58:26;;;;;;;4.20;3.70;;;14.30;99.90;;;;;;5053932;28;20173;-73
2021/08/04 05:00:52;;;;;;;3.80;3.50;;;14.30;99.90;;;;;;5073102;28;20655;-73
2021/08/04 05:03:18;;;;;;;5.87;4.30;;;14.30;99.90;;;;;;5053271;28;20560;-73
2021/08/04 05:05:43;;;;;;;5.00;4.50;;;14.30;99.90;;;;;;5041069;28;20188;-73
2021/08/04 05:08:09;;;;;;;7.17;4.20;;;14.40;99.90;;;;;;5047431;28;20221;-73
2021/08/04 05:10:34;;;;;;;5.37;4.40;;;14.40;99.90;;;;;;5050922;28;20177;-73
2021/08/04 05:13:00;;;;;;;8.60;4.10;;;14.40;99.90;;;;;;5054128;28;20193;-73
2021/08/04 05:15:26;;;;;;;3.43;3.00;;;14.40;99.90;;;;;;5055434;28;20177;-73
2021/08/04 05:17:52;;;;;;;8.77;3.60;;;14.40;99.90;;;;;;5053523;28;20184;-73
2021/08/04 05:20:17;;;;;;;5.40;3.60;;;14.40;99.90;;;;;;5055829;28;20193;-73
2021/08/04 05:22:43;;;;;;;5.60;3.70;;;14.50;99.90;;;;;;5052592;28;20233;-73
2021/08/04 05:25:09;;;;;;;3.73;3.40;;;14.40;99.90;;;;;;5051414;28;20177;-74
2021/08/04 05:27:35;;;;;;;6.20;3.23;;;14.40;99.90;;;;;;5052259;28;20205;-72
2021/08/04 05:30:01;;;;;;;3.93;3.57;;;14.40;99.90;;;;;;5057242;28;20202;-73
2021/08/04 05:32:26;;;;;;;4.83;3.30;;;14.40;99.90;;;;;;5072732;28;20181;-72
2021/08/04 05:34:52;;;;;;;4.27;3.70;;;14.40;99.90;;;;;;5072730;28;20202;-73
2021/08/04 05:37:18;;;;;;;4.60;3.17;;;14.40;99.90;;;;;;5072465;28;20215;-73
2021/08/04 05:39:43;;;;;;;7.37;3.73;;;14.40;99.90;;;;;;5070023;28;20181;-72
2021/08/04 05:42:09;;;;;;;7.80;3.80;;;14.30;99.90;;;;;;5057265;28;20250;-73
2021/08/04 05:44:34;;;;;;;4.30;3.50;;;14.30;99.90;;;;;;5059240;28;20170;-73
2021/08/04 05:47:00;;;;;;;4.67;3.60;;;14.30;99.90;;;;;;5051185;28;20194;-74
2021/08/04 05:49:26;;;;;;;4.03;3.50;;;14.40;99.90;;;;;;5053266;28;20184;-73
2021/08/04 05:51:51;;;;;;;4.57;3.50;;;14.40;99.90;;;;;;5055110;28;20174;-74
2021/08/04 05:54:19;;;;;;;4.10;3.57;;;14.40;99.90;;;;;;5051513;28;20178;-74
2021/08/04 05:56:45;;;;;;;5.87;3.80;;;14.40;99.90;;;;;;5052382;28;20197;-73
2021/08/04 05:59:11;;;;;;;5.00;3.60;;;14.50;99.90;;;;;;5072373;28;20520;-73
2021/08/04 06:01:36;;;;;;;8.63;4.23;;;14.50;99.90;;;;;;5063473;28;20194;-73
2021/08/04 06:04:02;;;;;;;6.83;4.30;;;14.50;99.90;;;;;;5063428;28;20165;-73
2021/08/04 06:06:28;;;;;;;4.53;3.80;;;14.60;99.90;;;;;;5070165;28;20279;-73
2021/08/04 06:08:57;;;;;;;4.53;3.80;;;14.60;99.90;;;;;;5058314;28;20516;-73
2021/08/04 06:11:23;;;;;;;5.17;3.77;;;14.60;99.90;;;;;;5076222;28;20191;-73
2021/08/04 06:13:49;;;;;;;7.60;3.60;;;14.70;99.90;;;;;;5075469;28;20627;-73
2021/08/04 06:16:14;;;;;;;5.27;4.03;;;14.70;99.90;;;;;;5054285;28;20201;-72
2021/08/04 06:18:40;;;;;;;4.07;3.67;;;14.70;99.90;;;;;;5067430;28;20181;-73
2021/08/04 06:21:06;;;;;;;4.17;3.77;;;14.80;99.90;;;;;;5075934;28;20606;-73
2021/08/04 06:23:32;;;;;;;5.83;3.73;;;14.80;99.90;;;;;;5075979;28;20182;-73
2021/08/04 06:25:58;;;;;;;5.23;4.53;;;14.70;99.90;;;;;;5076052;28;20514;-73
2021/08/04 06:28:23;;;;;;;5.03;4.63;;;14.70;99.90;;;;;;5075907;28;20165;-73
2021/08/04 06:30:49;;;;;;;4.13;3.57;;;14.70;99.90;;;;;;5076042;28;20242;-73
2021/08/04 06:33:15;;;;;;;4.27;3.87;;;14.70;99.90;;;;;;5075910;28;20173;-73
2021/08/04 06:35:41;;;;;;;3.87;3.50;;;14.70;99.90;;;;;;5060811;28;20671;-73
2021/08/04 06:38:06;;;;;;;5.63;3.53;;;14.60;99.90;;;;;;5061344;28;20291;-73
2021/08/04 06:40:32;;;;;;;4.13;3.83;;;14.60;99.90;;;;;;5075737;28;20208;-73
2021/08/04 06:42:58;;;;;;;4.20;3.67;;;14.60;99.90;;;;;;5075486;28;20204;-73
2021/08/04 06:45:23;;;;;;;3.93;3.63;;;14.60;99.90;;;;;;5075532;28;20631;-73
2021/08/04 06:47:49;;;;;;;4.23;3.57;;;14.60;99.90;;;;;;5061604;28;20200;-73
2021/08/04 06:50:15;;;;;;;4.03;3.70;;;14.60;99.90;;;;;;5075515;28;20523;-73
2021/08/04 06:52:40;;;;;;;4.47;3.73;;;14.70;99.90;;;;;;5074735;28;20234;-73
2021/08/04 06:55:06;;;;;;;4.20;3.70;;;14.80;99.90;;;;;;5061264;28;20174;-73
2021/08/04 06:57:32;;;;;;;4.80;3.90;;;14.70;99.90;;;;;;5075287;28;20193;-73
2021/08/04 06:59:57;;;;;;;4.77;3.67;;;14.80;99.90;;;;;;5072103;28;20189;-73
2021/08/04 07:02:23;;;;;;;3.90;3.50;;;15.00;99.90;;;;;;5056766;28;20198;-73
2021/08/04 07:04:49;;;;;;;3.73;3.33;;;15.20;99.90;;;;;;5054811;28;20268;-73
2021/08/04 07:07:15;;;;;;;6.20;3.07;;;15.20;99.90;;;;;;5063259;28;20189;-73
2021/08/04 07:09:41;;;;;;;3.87;3.33;;;15.30;99.90;;;;;;5075289;28;20197;-73
2021/08/04 07:12:08;;;;;;;2.90;2.60;;;15.30;99.90;;;;;;5074300;28;20651;-73
2021/08/04 07:14:34;;;;;;;3.60;3.03;;;15.30;99.90;;;;;;5065157;28;20166;-72
2021/08/04 07:17:01;;;;;;;3.90;2.63;;;15.40;99.90;;;;;;5063230;28;20198;-73
2021/08/04 07:19:27;;;;;;;2.70;2.43;;;15.40;99.90;;;;;;5075036;28;20662;-73
2021/08/04 07:21:52;;;;;;;3.27;2.70;;;15.60;99.90;;;;;;5064516;28;20194;-73
2021/08/04 07:24:18;;;;;;;3.73;2.97;;;15.60;99.90;;;;;;5070372;28;20173;-73
2021/08/04 07:26:44;;;;;;;3.63;2.60;;;15.60;99.90;;;;;;5055688;28;20322;-72
2021/08/04 07:29:11;;;;;;;4.73;2.83;;;15.60;99.90;;;;;;5057187;28;20178;-72
2021/08/04 07:31:37;;;;;;;3.50;3.20;;;15.70;99.90;;;;;;5056996;28;20176;-72
2021/08/04 07:34:03;;;;;;;3.87;3.47;;;15.80;99.90;;;;;;5067311;28;20186;-73
2021/08/04 07:36:29;;;;;;;5.70;4.27;;;15.80;99.90;;;;;;5074595;28;20708;-73
2021/08/04 07:38:55;;;;;;;3.87;3.47;;;15.70;99.90;;;;;;5074989;28;20223;-73
2021/08/04 07:41:21;;;;;;;3.77;3.27;;;15.80;99.90;;;;;;5074518;28;20199;-73
2021/08/04 07:43:49;;;;;;;4.83;4.37;;;15.90;99.90;;;;;;5067285;28;20206;-73
2021/08/04 07:46:17;;;;;;;5.63;4.90;;;15.90;99.90;;;;;;5054002;28;20926;-73
2021/08/04 07:48:43;;;;;;;6.23;4.30;;;15.90;99.90;;;;;;5061432;28;20187;-73
2021/08/04 07:51:09;;;;;;;5.13;4.13;;;16.00;99.90;;;;;;5063358;28;20190;-73
2021/08/04 07:53:35;;;;;;;4.90;4.43;;;16.00;99.90;;;;;;5072304;28;20172;-72
2021/08/04 07:56:00;;;;;;;5.00;4.50;;;16.10;99.90;;;;;;5057808;28;20178;-72
2021/08/04 07:58:26;;;;;;;4.97;4.47;;;16.10;99.90;;;;;;5069000;28;20165;-73
2021/08/04 08:00:51;;;;;;;4.67;4.13;;;16.10;99.90;;;;;;5057362;28;20550;-71
2021/08/04 08:03:17;;;;;;;5.40;4.63;;;16.20;99.90;;;;;;5057213;28;20229;-73
2021/08/04 08:05:43;;;;;;;6.37;5.10;;;16.20;99.90;;;;;;5074159;28;20542;-73
2021/08/04 08:08:08;;;;;;;7.53;4.60;;;16.30;99.90;;;;;;5060739;28;20189;-73
2021/08/04 08:10:36;;;;;;;4.70;4.03;;;16.30;99.90;;;;;;5055756;28;20179;-72
2021/08/04 08:13:03;;;;;;;4.30;3.90;;;16.30;99.90;;;;;;5049486;28;20178;-73
2021/08/04 08:15:28;;;;;;;5.03;4.10;;;16.30;99.90;;;;;;5036380;28;20211;-72
2021/08/04 08:17:54;;;;;;;5.60;4.07;;;16.30;99.90;;;;;;5049573;28;20240;-72
2021/08/04 08:20:20;;;;;;;4.80;4.20;;;16.30;99.90;;;;;;5047597;28;20558;-72
2021/08/04 08:22:50;;;;;;;5.40;3.63;;;16.30;99.90;;;;;;5040020;28;20201;-73
2021/08/04 08:25:17;;;;;;;5.23;3.07;;;16.30;99.90;;;;;;5040069;28;20666;-73
2021/08/04 08:27:44;;;;;;;5.60;3.40;;;16.30;99.90;;;;;;5051290;28;20185;-73
2021/08/04 08:30:10;;;;;;;4.13;3.53;;;16.30;99.90;;;;;;5049795;28;20640;-73
2021/08/04 08:32:36;;;;;;;3.27;2.97;;;16.30;99.90;;;;;;5048668;28;20185;-73
2021/08/04 08:35:03;;;;;;;4.47;3.57;;;16.30;99.90;;;;;;5051882;28;20171;-72
2021/08/04 08:37:28;;;;;;;2.93;2.63;;;16.30;99.90;;;;;;5055495;28;20213;-72
2021/08/04 08:39:54;;;;;;;3.80;2.90;;;16.30;99.90;;;;;;5057792;28;20268;-73
2021/08/04 08:42:20;;;;;;;4.33;3.00;;;16.30;99.90;;;;;;5051414;28;20593;-73
2021/08/04 08:44:47;;;;;;;4.40;3.10;;;16.30;99.90;;;;;;5048369;28;20179;-72
2021/08/04 08:47:13;;;;;;;3.07;2.77;;;16.30;99.90;;;;;;5049015;28;20735;-73
2021/08/04 08:49:42;;;;;;;3.00;2.70;;;16.40;99.90;;;;;;5051259;28;20243;-73
2021/08/04 08:52:08;;;;;;;3.80;2.40;;;16.40;99.90;;;;;;5050678;28;20188;-73
2021/08/04 08:54:34;;;;;;;2.50;2.30;;;16.40;99.90;;;;;;5049308;28;20170;-73
2021/08/04 08:57:00;;;;;;;4.03;2.67;;;16.40;99.90;;;;;;5049552;28;20700;-73
2021/08/04 08:59:26;;;;;;;5.27;2.37;;;16.40;99.90;;;;;;5053427;28;20184;-72
2021/08/04 09:01:52;;;;;;;4.27;2.63;;;16.40;99.90;;;;;;5050611;28;20195;-73
2021/08/04 09:04:18;;;;;;;4.90;2.27;;;16.40;99.90;;;;;;5053205;28;20742;-73
2021/08/04 09:06:49;;;;;;;2.77;2.40;;;16.40;99.90;;;;;;5054218;28;20189;-73
2021/08/04 09:09:32;;;;;;;3.37;2.40;;;16.50;99.90;;;;;;5045786;28;20255;-73
2021/08/04 09:12:06;;;;;;;4.07;2.50;;;16.50;99.90;;;;;;5046572;28;20178;-73
2021/08/04 09:14:33;;;;;;;2.93;2.67;;;16.50;99.90;;;;;;5060900;28;20178;-74
2021/08/04 09:17:14;;;;;;;2.60;2.40;;;16.60;99.90;;;;;;5056833;28;20215;-73
2021/08/04 09:19:46;;;;;;;2.90;2.57;;;16.70;99.90;;;;;;5049369;28;20176;-73
2021/08/04 09:22:29;;;;;;;3.60;2.20;;;16.70;99.90;;;;;;5048421;28;20204;-73
2021/08/04 09:25:00;;;;;;;2.10;1.70;;;16.80;99.90;;;;;;5045836;28;20671;-73
2021/08/04 09:27:43;;;;;;;1.97;1.77;;;16.90;99.90;;;;;;5051109;28;20183;-73
2021/08/04 09:30:15;;;;;;;3.47;1.87;;;16.80;99.90;;;;;;5047707;28;20166;-73
2021/08/04 09:32:41;;;;;;;2.13;1.93;;;16.80;99.90;;;;;;5046313;28;20184;-73
2021/08/04 09:35:15;;;;;;;2.63;1.73;;;16.90;99.90;;;;;;5047053;28;20173;-73
2021/08/04 09:37:42;;;;;;;4.37;2.10;;;16.90;99.90;;;;;;5051645;28;20212;-73
2021/08/04 09:40:11;;;;;;;2.70;1.70;;;16.90;99.90;;;;;;5045262;28;20192;-73
2021/08/04 09:42:54;;;;;;;2.60;2.10;;;16.90;99.90;;;;;;5042782;28;20225;-72
2021/08/04 09:45:44;;;;;;;2.90;2.10;;;16.90;99.90;;;;;;5051029;28;20372;-73
2021/08/04 09:48:12;;;;;;;2.53;1.97;;;16.90;99.90;;;;;;5038666;28;20683;-73
2021/08/04 09:50:49;;;;;;;1.90;1.80;;;16.80;99.90;;;;;;5055803;28;20174;-73
2021/08/04 09:53:20;;;;;;;1.90;1.70;;;16.80;99.90;;;;;;5042838;28;20166;-73
2021/08/04 09:56:17;;;;;;;1.60;1.50;;;16.80;99.90;;;;;;5059107;28;20176;-73
2021/08/04 09:58:46;;;;;;;3.20;1.83;;;16.80;99.90;;;;;;5043474;28;20195;-74
2021/08/04 10:01:22;;;;;;;1.50;1.40;;;16.80;99.90;;;;;;5051613;28;20259;-73
2021/08/04 10:04:01;;;;;;;2.13;1.63;;;16.80;99.90;;;;;;5046107;28;20181;-73
2021/08/04 10:06:27;;;;;;;2.70;2.00;;;16.80;99.90;;;;;;5047315;28;20601;-73
2021/08/04 10:08:53;;;;;;;2.20;1.57;;;16.80;99.90;;;;;;5046080;28;20179;-72
2021/08/04 10:11:20;;;;;;;1.83;1.73;;;16.90;99.90;;;;;;5053184;28;20183;-73
2021/08/04 10:13:46;;;;;;;2.40;1.90;;;16.90;99.90;;;;;;5052234;28;20189;-73
2021/08/04 10:16:12;;;;;;;2.10;1.70;;;16.90;99.90;;;;;;5052430;28;20205;-73
2021/08/04 10:18:40;;;;;;;2.43;1.53;;;16.90;99.90;;;;;;5044643;28;20737;-73
2021/08/04 10:21:11;;;;;;;2.03;1.83;;;16.90;99.90;;;;;;5049134;28;20713;-73
2021/08/04 10:23:38;;;;;;;2.03;1.73;;;16.90;99.90;;;;;;5050315;28;20164;-74
2021/08/04 10:26:09;;;;;;;2.83;2.17;;;16.80;99.90;;;;;;5050304;28;20205;-73
2021/08/04 10:28:36;;;;;;;2.40;1.77;;;16.80;99.90;;;;;;5051536;28;20173;-73
2021/08/04 10:31:02;;;;;;;3.20;1.90;;;16.90;99.90;;;;;;5044288;28;20966;-73
2021/08/04 10:33:29;;;;;;;1.97;1.80;;;16.90;99.90;;;;;;5050899;28;20653;-73
2021/08/04 10:35:59;;;;;;;1.70;1.60;;;16.90;99.90;;;;;;5046895;28;20189;-73
2021/08/04 10:38:26;;;;;;;1.93;1.83;;;16.90;99.90;;;;;;5077003;22;20236;-72
2021/08/04 10:41:13;;;;;;;3.20;2.03;;;16.90;99.90;;;;;;5042377;28;20173;-71
2021/08/04 10:43:44;;;;;;;2.60;1.93;;;16.90;99.90;;;;;;5045281;28;20210;-72
2021/08/04 10:46:30;;;;;;;2.10;1.90;;;16.90;99.90;;;;;;5045026;28;20191;-71
2021/08/04 10:49:03;;;;;;;2.17;2.00;;;16.90;99.90;;;;;;5025523;28;20235;-72
2021/08/04 10:51:30;;;;;;;2.17;1.97;;;16.90;99.90;;;;;;5024929;28;20250;-73
2021/08/04 10:54:02;;;;;;;2.37;2.17;;;17.00;99.90;;;;;;5032461;28;20185;-74
2021/08/04 10:56:36;;;;;;;2.23;2.00;;;17.00;99.90;;;;;;5031125;28;20169;-73
2021/08/04 10:59:10;;;;;;;1.63;1.50;;;17.00;99.90;;;;;;5032066;28;20231;-74
2021/08/04 11:01:44;;;;;;;4.03;1.90;;;17.10;99.90;;;;;;5033446;28;20276;-71
2021/08/04 11:04:16;;;;;;;2.10;2.00;;;17.10;99.90;;;;;;5028389;28;20197;-72
2021/08/04 11:07:09;;;;;;;2.23;1.87;;;17.10;99.90;;;;;;5029802;28;20214;-72
2021/08/04 11:09:39;;;;;;;1.97;1.77;;;17.10;99.90;;;;;;5029579;28;20167;-72
2021/08/04 11:12:29;;;;;;;1.97;1.70;;;17.20;99.90;;;;;;5030795;28;20831;-73
2021/08/04 11:14:58;;;;;;;2.37;2.17;;;17.20;99.90;;;;;;5027109;28;20189;-73
2021/08/04 11:17:29;;;;;;;2.20;2.00;;;17.20;99.90;;;;;;5028572;28;20201;-70
2021/08/04 11:22:30;;;;;;;2.23;2.03;;;17.30;99.90;;;;;;5024573;28;20224;-71
2021/08/04 11:25:01;;;;;;;2.13;1.93;;;17.30;99.90;;;;;;5027560;28;20179;-72
2021/08/04 11:27:34;;;;;;;2.10;1.90;;;17.20;99.90;;;;;;5030473;28;20198;-72
2021/08/04 11:30:01;;;;;;;1.90;1.80;;;17.20;99.90;;;;;;5033563;28;20677;-73
2021/08/04 11:32:28;;;;;;;2.37;1.90;;;17.30;99.90;;;;;;5028683;28;20192;-72
2021/08/04 11:34:55;;;;;;;2.20;1.77;;;17.30;99.90;;;;;;5032160;28;20183;-72
2021/08/04 11:37:22;;;;;;;2.07;1.80;;;17.30;99.90;;;;;;5027762;28;20714;-73
2021/08/04 11:40:02;;;;;;;2.30;2.10;;;17.30;99.90;;;;;;5026848;28;20188;-71
2021/08/04 11:42:30;;;;;;;2.17;1.97;;;17.30;99.90;;;;;;5029095;28;20186;-72
2021/08/04 11:45:06;;;;;;;2.67;2.00;;;17.20;99.90;;;;;;5028768;28;20251;-73
2021/08/04 11:47:32;;;;;;;2.40;2.20;;;17.30;99.90;;;;;;5029919;28;20197;-71
2021/08/04 11:50:04;;;;;;;2.00;1.90;;;17.20;99.90;;;;;;5030885;28;20597;-73
2021/08/04 11:52:30;;;;;;;1.93;1.60;;;17.20;99.90;;;;;;5032508;28;20166;-71
2021/08/04 11:55:08;;;;;;;2.17;1.80;;;17.20;99.90;;;;;;5027550;28;20228;-71
2021/08/04 11:57:37;;;;;;;3.07;2.03;;;17.20;99.90;;;;;;5023782;28;20207;-74
2021/08/04 12:00:11;;;;;;;1.90;1.80;;;17.20;99.90;;;;;;5027302;28;20273;-72
2021/08/04 12:02:38;;;;;;;2.27;2.07;;;17.30;99.90;;;;;;5028225;28;20212;-71
2021/08/04 12:05:07;;;;;;;2.43;2.23;;;17.30;99.90;;;;;;5026223;28;20184;-72
2021/08/04 12:07:35;;;;;;;2.10;2.00;;;17.30;99.90;;;;;;5027191;28;20197;-71
2021/08/04 12:10:04;;;;;;;3.00;2.07;;;17.30;99.90;;;;;;5021626;28;20169;-70
2021/08/04 12:12:37;;;;;;;2.07;1.90;;;17.30;99.90;;;;;;5029482;28;21139;-71
2021/08/04 12:15:12;;;;;;;2.40;2.20;;;17.30;99.90;;;;;;5029484;28;20257;-73
2021/08/04 12:17:38;;;;;;;3.77;2.57;;;17.30;99.90;;;;;;5031276;28;20682;-72
2021/08/04 12:20:19;;;;;;;2.43;2.17;;;17.40;99.90;;;;;;5031456;28;20185;-73
2021/08/04 12:22:55;;;;;;;1.87;1.77;;;17.40;99.90;;;;;;5028995;28;20255;-72
2021/08/04 12:25:21;;;;;;;2.53;2.33;;;17.40;99.90;;;;;;5019195;28;20166;-71
2021/08/04 12:27:49;;;;;;;2.60;2.13;;;17.30;99.90;;;;;;5023233;28;20315;-74
2021/08/04 12:30:22;;;;;;;3.13;2.00;;;17.30;99.90;;;;;;5031213;28;20174;-74
2021/08/04 12:33:13;;;;;;;2.60;2.40;;;17.40;99.90;;;;;;5010483;28;20201;-72
2021/08/04 12:36:03;;;;;;;2.63;2.20;;;17.30;99.90;;;;;;5020920;28;20610;-73
2021/08/04 12:38:35;;;;;;;2.70;2.50;;;17.40;99.90;;;;;;5024848;28;20284;-73
2021/08/04 12:41:01;;;;;;;2.67;2.30;;;17.30;99.90;;;;;;5024488;28;20209;-74
2021/08/04 12:43:35;;;;;;;2.00;1.90;;;17.30;99.90;;;;;;5022378;28;20258;-72
2021/08/04 12:46:03;;;;;;;2.37;2.10;;;17.30;99.90;;;;;;5015861;28;20598;-73
2021/08/04 12:48:41;;;;;;;2.20;2.03;;;17.30;99.90;;;;;;5024399;28;20206;-70
2021/08/04 12:51:15;;;;;;;2.43;2.23;;;17.30;99.90;;;;;;5019582;28;20176;-72
2021/08/04 12:53:42;;;;;;;2.83;2.60;;;17.30;99.90;;;;;;5020072;28;20180;-73
2021/08/04 12:56:16;;;;;;;3.47;3.13;;;17.10;99.90;;;;;;5015559;28;20190;-72
2021/08/04 12:59:01;;;;;;;5.27;2.90;;;17.10;99.90;;;;;;5020632;28;20700;-74